createdAt,value
2022-08-07T00:02:35.019Z,71.26
2022-08-07T00:04:04.367Z,71.72
2022-08-07T00:06:33.490Z,71.39
2022-08-07T00:09:16.885Z,71.08
2022-08-07T00:11:55.660Z,71.84
2022-08-07T00:14:30.207Z,72.14
2022-08-07T00:16:58.995Z,72.54
2022-08-07T00:19:25.885Z,72.30
2022-08-07T00:21:57.334Z,71.99
2022-08-07T00:24:29.261Z,72.73
2022-08-07T00:27:06.178Z,72.11
2022-08-07T00:29:36.921Z,72.94
2022-08-07T00:32:05.994Z,73.07
2022-08-07T00:34:35.435Z,73.35
2022-08-07T00:37:02.444Z,72.63
2022-08-07T00:39:31.941Z,73.54
2022-08-07T00:42:02.199Z,74.87
2022-08-07T00:44:33.360Z,73.61
2022-08-07T00:47:01.158Z,73.61
2022-08-07T00:50:19.311Z,73.53
2022-08-07T00:52:19.798Z,73.66
2022-08-07T00:54:46.972Z,73.32
2022-08-07T00:57:25.272Z,73.16
2022-08-07T00:59:53.167Z,73.36
2022-08-07T01:02:28.326Z,74.07
2022-08-07T01:04:58.313Z,74.23
2022-08-07T01:07:27.554Z,74.20
2022-08-07T01:10:07.126Z,74.83
2022-08-07T01:12:39.105Z,74.75
2022-08-07T01:15:06.701Z,74.43
2022-08-07T01:17:39.977Z,74.77
2022-08-07T01:20:17.145Z,74.51
2022-08-07T01:22:54.354Z,75.01
2022-08-07T01:25:53.669Z,75.25
2022-08-07T01:28:18.589Z,76.05
2022-08-07T01:30:45.317Z,75.83
2022-08-07T01:33:13.635Z,75.54
2022-08-07T01:35:53.234Z,74.63
2022-08-07T01:38:25.168Z,75.29
2022-08-07T01:40:54.898Z,75.04
2022-08-07T01:43:22.289Z,75.57
2022-08-07T01:45:54.597Z,75.63
2022-08-07T01:48:30.282Z,75.18
2022-08-07T01:51:24.474Z,74.89
2022-08-07T01:54:12.660Z,75.41
2022-08-07T01:57:03.791Z,76.25
2022-08-07T01:59:36.804Z,75.54
2022-08-07T02:03:11.271Z,75.99
2022-08-07T02:05:06.494Z,75.67
2022-08-07T02:07:50.165Z,75.77
2022-08-07T02:10:19.502Z,76.51
2022-08-07T02:12:50.039Z,76.07
2022-08-07T02:15:21.592Z,75.59
2022-08-07T02:17:51.825Z,75.89
2022-08-07T02:20:23.688Z,76.27
2022-08-07T02:22:55.119Z,76.93
2022-08-07T02:26:10.261Z,76.42
2022-08-07T02:28:11.298Z,75.95
2022-08-07T02:30:38.892Z,75.98
2022-08-07T02:33:09.511Z,77.08
2022-08-07T02:36:29.286Z,76.65
2022-08-07T02:38:31.847Z,77.20
2022-08-07T02:40:59.777Z,76.58
2022-08-07T02:43:28.310Z,76.50
2022-08-07T02:46:02.026Z,77.00
2022-08-07T02:48:30.296Z,77.19
2022-08-07T02:50:59.334Z,77.17
2022-08-07T02:53:30.064Z,77.76
2022-08-07T02:56:04.416Z,76.96
2022-08-07T02:58:34.146Z,77.03
2022-08-07T03:01:02.193Z,77.51
2022-08-07T03:03:50.083Z,77.60
2022-08-07T03:06:26.240Z,77.37
2022-08-07T03:09:02.128Z,77.52
2022-08-07T03:11:29.612Z,77.24
2022-08-07T03:14:01.783Z,77.70
2022-08-07T03:16:30.433Z,78.09
2022-08-07T03:18:58.293Z,77.88
2022-08-07T03:21:25.362Z,77.63
2022-08-07T03:24:19.469Z,77.88
2022-08-07T03:26:50.981Z,77.04
2022-08-07T03:29:20.808Z,77.53
2022-08-07T03:31:50.022Z,77.25
2022-08-07T03:34:18.548Z,77.37
2022-08-07T03:36:51.091Z,77.49
2022-08-07T03:39:18.090Z,77.34
2022-08-07T03:42:13.315Z,78.33
2022-08-07T03:44:40.207Z,78.70
2022-08-07T03:47:10.824Z,78.42
2022-08-07T03:49:42.253Z,78.29
2022-08-07T03:52:22.403Z,78.14
2022-08-07T03:54:58.973Z,78.16
2022-08-07T03:58:32.572Z,77.97
2022-08-07T04:00:21.094Z,78.07
2022-08-07T04:02:56.865Z,77.42
2022-08-07T04:05:28.736Z,77.17
2022-08-07T04:08:06.733Z,77.12
2022-08-07T04:10:33.435Z,77.62
2022-08-07T04:13:07.620Z,77.39
2022-08-07T04:15:43.459Z,77.48
2022-08-07T04:18:57.946Z,77.26
2022-08-07T04:21:02.628Z,76.63
2022-08-07T04:23:43.667Z,76.55
2022-08-07T04:26:16.948Z,76.51
2022-08-07T04:28:48.552Z,76.68
2022-08-07T04:31:20.196Z,76.32
2022-08-07T04:34:03.167Z,76.16
2022-08-07T04:36:29.727Z,76.18
2022-08-07T04:38:56.271Z,75.58
2022-08-07T04:41:24.914Z,75.74
2022-08-07T04:44:11.994Z,75.25
2022-08-07T04:46:59.629Z,75.22
2022-08-07T04:50:06.482Z,75.72
2022-08-07T04:52:51.905Z,75.78
2022-08-07T04:58:09.702Z,75.75
2022-08-07T05:00:07.856Z,76.72
2022-08-07T05:02:01.682Z,75.88
2022-08-07T05:04:47.070Z,75.87
2022-08-07T05:07:30.663Z,75.59
2022-08-07T05:10:49.662Z,76.07
2022-08-07T05:14:51.993Z,75.94
2022-08-07T05:16:24.288Z,75.71
2022-08-07T05:18:57.237Z,76.19
2022-08-07T05:22:00.444Z,76.24
2022-08-07T05:24:17.227Z,76.05
2022-08-07T05:26:47.192Z,76.52
2022-08-07T05:29:15.897Z,75.84
2022-08-07T05:31:47.576Z,75.28
2022-08-07T05:34:19.953Z,74.65
2022-08-07T05:36:54.025Z,74.58
2022-08-07T05:40:05.382Z,73.32
2022-08-07T05:42:11.939Z,73.20
2022-08-07T05:44:46.440Z,72.42
2022-08-07T05:47:18.592Z,72.38
2022-08-07T05:49:52.362Z,71.88
2022-08-07T05:52:20.053Z,71.18
2022-08-07T05:54:55.640Z,71.39
2022-08-07T05:57:26.575Z,70.30
2022-08-07T06:00:00.307Z,69.62
2022-08-07T06:02:31.488Z,69.30
2022-08-07T06:05:03.814Z,68.98
2022-08-07T06:08:13.405Z,68.99
2022-08-07T06:10:18.794Z,68.73
2022-08-07T06:12:47.229Z,68.05
2022-08-07T06:15:16.111Z,67.54
2022-08-07T06:17:53.583Z,65.89
2022-08-07T06:20:25.605Z,65.38
2022-08-07T06:23:25.055Z,64.38
2022-08-07T06:25:54.345Z,62.50
2022-08-07T06:28:27.739Z,62.59
2022-08-07T06:30:55.623Z,63.20
2022-08-07T06:33:22.931Z,61.62
2022-08-07T06:36:12.378Z,60.79
2022-08-07T06:38:36.448Z,60.49
2022-08-07T06:41:18.262Z,59.24
2022-08-07T06:44:10.877Z,59.71
2022-08-07T06:46:38.303Z,59.12
2022-08-07T06:49:07.200Z,58.22
2022-08-07T06:51:49.572Z,57.74
2022-08-07T06:55:34.450Z,58.09
2022-08-07T06:57:07.409Z,59.19
2022-08-07T07:00:15.098Z,58.70
2022-08-07T07:02:48.818Z,58.23
2022-08-07T07:05:12.598Z,56.36
2022-08-07T07:07:59.550Z,56.95
2022-08-07T07:10:31.156Z,57.53
2022-08-07T07:13:04.609Z,56.99
2022-08-07T07:15:37.633Z,54.34
2022-08-07T07:18:09.367Z,52.52
2022-08-07T07:20:38.493Z,52.10
2022-08-07T07:24:08.909Z,52.29
2022-08-07T07:26:32.444Z,52.00
2022-08-07T07:29:56.341Z,51.86
2022-08-07T07:31:56.111Z,51.14
2022-08-07T07:34:30.996Z,50.92
2022-08-07T07:37:14.951Z,49.86
2022-08-07T07:39:54.252Z,50.08
2022-08-07T07:42:25.785Z,48.71
2022-08-07T07:45:02.047Z,48.34
2022-08-07T07:47:29.569Z,46.10
2022-08-07T07:50:36.178Z,46.96
2022-08-07T07:52:46.957Z,46.86
2022-08-07T07:55:14.608Z,45.58
2022-08-07T07:57:51.560Z,44.31
2022-08-07T08:00:29.087Z,43.93
2022-08-07T08:03:17.013Z,43.54
2022-08-07T08:05:56.835Z,44.08
2022-08-07T08:08:34.446Z,42.85
2022-08-07T08:11:03.784Z,43.20
2022-08-07T08:13:36.772Z,44.14
2022-08-07T08:16:20.204Z,43.98
2022-08-07T08:18:54.623Z,44.01
2022-08-07T08:21:55.914Z,43.27
2022-08-07T08:24:57.382Z,43.40
2022-08-07T08:27:37.110Z,43.27
2022-08-07T08:30:14.215Z,43.46
2022-08-07T08:32:49.012Z,44.09
2022-08-07T08:35:20.499Z,42.77
2022-08-07T08:38:01.161Z,42.28
2022-08-07T08:40:37.854Z,41.63
2022-08-07T08:43:42.031Z,42.00
2022-08-07T08:46:28.386Z,42.38
2022-08-07T08:49:10.199Z,42.14
2022-08-07T08:54:36.836Z,41.65
2022-08-07T08:57:08.779Z,42.70
2022-08-07T08:59:51.301Z,43.79
2022-08-07T09:02:39.170Z,43.89
2022-08-07T09:05:10.049Z,43.87
2022-08-07T09:07:46.481Z,42.20
2022-08-07T09:10:45.185Z,43.07
2022-08-07T09:13:38.265Z,44.88
2022-08-07T09:16:30.038Z,45.36
2022-08-07T09:19:51.866Z,45.17
2022-08-07T09:24:27.987Z,42.41
2022-08-07T09:25:20.304Z,42.50
2022-08-07T09:28:00.585Z,42.46
2022-08-07T09:30:54.727Z,42.57
2022-08-07T09:33:52.376Z,43.18
2022-08-07T09:36:35.646Z,43.97
2022-08-07T09:39:55.455Z,46.05
2022-08-07T09:42:50.267Z,43.19
2022-08-07T09:47:50.136Z,41.71
2022-08-07T09:48:56.097Z,42.32
2022-08-07T09:52:09.661Z,41.49
2022-08-07T09:54:59.595Z,41.58
2022-08-07T09:57:46.548Z,40.80
2022-08-07T10:00:16.601Z,40.87
2022-08-07T10:04:05.253Z,40.56
2022-08-07T10:06:24.444Z,40.87
2022-08-07T10:09:08.664Z,40.19
2022-08-07T10:12:01.555Z,40.09
2022-08-07T10:14:47.527Z,41.00
2022-08-07T10:18:01.027Z,40.43
2022-08-07T10:20:50.335Z,38.19
2022-08-07T10:24:05.347Z,37.90
2022-08-07T10:26:38.543Z,37.20
2022-08-07T10:29:45.654Z,38.37
2022-08-07T10:32:53.517Z,36.65
2022-08-07T10:35:55.638Z,36.53
2022-08-07T10:38:36.044Z,38.39
2022-08-07T10:41:46.396Z,38.56
2022-08-07T10:44:16.575Z,38.94
2022-08-07T10:47:02.060Z,41.71
2022-08-07T10:49:49.635Z,42.15
2022-08-07T10:52:40.203Z,41.83
2022-08-07T10:55:26.771Z,42.21
2022-08-07T10:59:06.641Z,42.92
2022-08-07T11:02:05.422Z,42.44
2022-08-07T11:04:57.866Z,42.82
2022-08-07T11:07:58.853Z,42.78
2022-08-07T11:10:39.336Z,42.61
2022-08-07T11:14:45.968Z,43.84
2022-08-07T11:16:21.977Z,45.73
2022-08-07T11:19:11.968Z,44.67
2022-08-07T11:22:00.883Z,43.59
2022-08-07T11:24:56.102Z,44.88
2022-08-07T11:28:01.376Z,45.06
2022-08-07T11:30:41.357Z,45.78
2022-08-07T11:33:58.593Z,45.77
2022-08-07T11:36:44.202Z,46.32
2022-08-07T11:39:19.933Z,46.41
2022-08-07T11:42:23.428Z,47.42
2022-08-07T11:45:09.202Z,48.07
2022-08-07T11:47:58.995Z,48.25
2022-08-07T11:50:32.226Z,48.51
2022-08-07T11:53:35.257Z,48.86
2022-08-07T11:56:25.274Z,48.27
2022-08-07T12:00:08.330Z,47.96
2022-08-07T12:02:30.336Z,46.82
2022-08-07T12:05:15.398Z,46.87
2022-08-07T12:08:04.007Z,46.35
2022-08-07T12:10:41.992Z,48.06
2022-08-07T12:13:18.644Z,47.88
2022-08-07T12:16:09.300Z,48.36
2022-08-07T12:18:53.331Z,48.31
2022-08-07T12:21:56.030Z,48.17
2022-08-07T12:25:17.995Z,47.34
2022-08-07T12:28:04.041Z,47.78
2022-08-07T12:30:39.069Z,47.10
2022-08-07T12:33:28.427Z,50.09
2022-08-07T12:36:15.747Z,47.46
2022-08-07T12:38:47.495Z,49.03
2022-08-07T12:41:42.812Z,49.25
2022-08-07T12:44:17.374Z,50.15
2022-08-07T12:46:53.358Z,49.52
2022-08-07T12:49:48.511Z,50.03
2022-08-07T12:52:28.956Z,50.10
2022-08-07T12:56:03.558Z,49.34
2022-08-07T12:58:39.449Z,48.77
2022-08-07T13:01:08.003Z,50.77
2022-08-07T13:04:18.879Z,49.51
2022-08-07T13:08:12.931Z,48.59
2022-08-07T13:11:21.902Z,50.95
2022-08-07T13:14:03.224Z,50.69
2022-08-07T13:16:36.719Z,52.55
2022-08-07T13:19:50.764Z,52.00
2022-08-07T13:22:32.649Z,51.47
2022-08-07T13:25:23.993Z,52.05
2022-08-07T13:28:12.775Z,52.36
2022-08-07T13:30:48.863Z,50.32
2022-08-07T13:34:30.796Z,48.52
2022-08-07T13:36:27.628Z,46.64
2022-08-07T13:39:11.299Z,45.65
2022-08-07T13:41:47.449Z,45.88
2022-08-07T13:44:18.654Z,45.01
2022-08-07T13:46:56.787Z,46.14
2022-08-07T13:50:35.277Z,47.72
2022-08-07T13:52:26.437Z,46.68
2022-08-07T13:54:59.058Z,46.99
2022-08-07T13:57:37.609Z,45.53
2022-08-07T14:00:13.401Z,46.95
2022-08-07T14:02:55.873Z,46.10
2022-08-07T14:05:37.414Z,46.14
2022-08-07T14:08:07.235Z,47.72
2022-08-07T14:10:42.008Z,48.88
2022-08-07T14:13:16.251Z,48.71
2022-08-07T14:15:44.388Z,49.06
2022-08-07T14:18:29.827Z,48.91
2022-08-07T14:22:41.178Z,48.99
2022-08-07T14:24:03.771Z,49.68
2022-08-07T14:26:36.615Z,50.66
2022-08-07T14:30:04.819Z,51.14
2022-08-07T14:31:56.471Z,50.41
2022-08-07T14:34:29.594Z,50.24
2022-08-07T14:36:56.703Z,50.12
2022-08-07T14:40:17.751Z,49.03
2022-08-07T14:42:18.669Z,49.79
2022-08-07T14:44:53.613Z,49.80
2022-08-07T14:47:23.215Z,50.12
2022-08-07T14:49:57.099Z,49.71
2022-08-07T14:52:28.711Z,50.52
2022-08-07T14:54:58.548Z,49.34
2022-08-07T14:57:54.858Z,50.63
2022-08-07T15:00:20.605Z,51.04
2022-08-07T15:02:58.038Z,50.53
2022-08-07T15:05:26.915Z,51.45
2022-08-07T15:07:58.356Z,49.23
2022-08-07T15:10:29.642Z,50.02
2022-08-07T15:13:12.316Z,50.44
2022-08-07T15:15:43.027Z,48.59
2022-08-07T15:21:58.960Z,49.66
2022-08-07T15:25:16.042Z,50.40
2022-08-07T15:27:04.311Z,49.76
2022-08-07T15:30:09.799Z,51.12
2022-08-07T15:33:01.255Z,51.12
2022-08-07T15:38:51.268Z,51.44
2022-08-07T15:41:24.074Z,50.95
2022-08-07T15:44:07.796Z,52.86
2022-08-07T15:46:48.588Z,52.04
2022-08-07T15:52:10.720Z,52.03
2022-08-07T15:54:42.152Z,51.22
2022-08-07T15:57:27.893Z,51.92
2022-08-07T15:59:59.514Z,53.03
2022-08-07T16:02:38.986Z,52.76
2022-08-07T16:05:15.288Z,52.84
2022-08-07T16:08:33.521Z,53.09
2022-08-07T16:11:03.720Z,53.54
2022-08-07T16:13:57.757Z,53.31
2022-08-07T16:16:49.425Z,53.92
2022-08-07T16:19:58.792Z,53.80
2022-08-07T16:22:54.294Z,54.50
2022-08-07T16:25:54.513Z,56.18
2022-08-07T16:30:05.492Z,54.09
2022-08-07T16:31:51.784Z,55.26
2022-08-07T16:34:48.579Z,55.81
2022-08-07T16:38:05.922Z,54.95
2022-08-07T16:40:32.070Z,55.83
2022-08-07T16:43:07.900Z,55.48
2022-08-07T16:46:47.284Z,53.90
2022-08-07T16:50:20.741Z,54.31
2022-08-07T16:52:52.681Z,53.00
2022-08-07T16:55:47.949Z,52.83
2022-08-07T16:59:10.244Z,53.38
2022-08-07T17:01:35.951Z,54.17
2022-08-07T17:04:12.289Z,55.35
2022-08-07T17:07:02.993Z,54.70
2022-08-07T17:10:06.850Z,55.08
2022-08-07T17:12:53.848Z,54.60
2022-08-07T17:15:44.422Z,53.33
2022-08-07T17:18:25.951Z,53.59
2022-08-07T17:20:53.892Z,53.42
2022-08-07T17:23:32.645Z,54.13
2022-08-07T17:26:30.579Z,53.34
2022-08-07T17:30:15.609Z,53.24
2022-08-07T17:33:04.709Z,54.34
2022-08-07T17:36:20.592Z,55.34
2022-08-07T17:39:10.073Z,55.91
2022-08-07T17:42:04.863Z,56.64
2022-08-07T17:44:50.571Z,56.19
2022-08-07T17:47:54.137Z,55.94
2022-08-07T17:50:30.469Z,56.53
2022-08-07T17:53:01.080Z,55.63
2022-08-07T17:56:00.680Z,56.46
2022-08-07T17:58:53.091Z,57.39
2022-08-07T18:01:36.235Z,57.59
2022-08-07T18:04:24.696Z,57.51
2022-08-07T18:07:20.262Z,57.54
2022-08-07T18:10:06.648Z,58.16
2022-08-07T18:13:10.968Z,58.44
2022-08-07T18:16:05.135Z,57.96
2022-08-07T18:21:02.816Z,56.94
2022-08-07T18:21:53.547Z,57.95
2022-08-07T18:24:51.653Z,58.73
2022-08-07T18:27:39.111Z,58.77
2022-08-07T18:30:31.253Z,59.88
2022-08-07T18:33:15.908Z,58.85
2022-08-07T18:36:32.973Z,58.42
2022-08-07T18:40:07.210Z,59.18
2022-08-07T18:42:28.577Z,60.68
2022-08-07T18:45:44.620Z,60.85
2022-08-07T18:48:38.206Z,60.70
2022-08-07T18:52:35.204Z,61.10
2022-08-07T18:54:30.597Z,62.21
2022-08-07T18:57:31.031Z,62.45
2022-08-07T19:00:32.440Z,61.69
2022-08-07T19:03:37.797Z,62.01
2022-08-07T19:06:16.456Z,61.12
2022-08-07T19:09:09.354Z,61.77
2022-08-07T19:12:19.176Z,62.07
2022-08-07T19:16:03.054Z,61.87
2022-08-07T19:18:03.860Z,61.71
2022-08-07T19:21:09.242Z,62.17
2022-08-07T19:23:58.451Z,62.43
2022-08-07T19:26:55.563Z,62.72
2022-08-07T19:31:04.543Z,62.67
2022-08-07T19:32:42.354Z,62.64
2022-08-07T19:35:12.051Z,62.79
2022-08-07T19:37:56.533Z,62.98
2022-08-07T19:40:31.739Z,63.29
2022-08-07T19:43:02.380Z,63.70
2022-08-07T19:46:07.352Z,63.96
2022-08-07T19:48:24.166Z,63.59
2022-08-07T19:50:53.459Z,64.33
2022-08-07T19:54:34.119Z,64.83
2022-08-07T19:57:52.259Z,63.84
2022-08-07T19:58:57.181Z,63.59
2022-08-07T20:01:52.324Z,65.21
2022-08-07T20:04:12.530Z,64.90
2022-08-07T20:06:58.323Z,66.58
2022-08-07T20:10:36.398Z,65.94
2022-08-07T20:12:32.323Z,65.37
2022-08-07T20:15:05.166Z,65.78
2022-08-07T20:17:45.460Z,66.37
2022-08-07T20:20:29.694Z,67.35
2022-08-07T20:23:01.426Z,67.28
2022-08-07T20:25:50.927Z,66.18
2022-08-07T20:28:19.793Z,66.55
2022-08-07T20:30:47.084Z,67.12
2022-08-07T20:33:36.271Z,67.64
2022-08-07T20:36:06.306Z,67.71
2022-08-07T20:38:33.854Z,67.75
2022-08-07T20:41:03.728Z,68.19
2022-08-07T20:43:33.990Z,67.41
2022-08-07T20:46:26.963Z,68.65
2022-08-07T20:49:53.915Z,68.52
2022-08-07T20:51:40.442Z,69.54
2022-08-07T20:54:30.351Z,69.50
2022-08-07T20:57:04.560Z,69.84
2022-08-07T21:00:08.178Z,70.90
2022-08-07T21:02:40.634Z,70.08
2022-08-07T21:05:42.775Z,70.29
2022-08-07T21:08:17.993Z,70.35
2022-08-07T21:10:48.953Z,70.60
2022-08-07T21:13:24.626Z,70.79
2022-08-07T21:16:09.163Z,70.66
2022-08-07T21:18:41.292Z,70.94
2022-08-07T21:21:16.162Z,71.03
2022-08-07T21:24:01.624Z,70.95
2022-08-07T21:26:59.511Z,71.35
2022-08-07T21:29:37.326Z,71.90
2022-08-07T21:32:46.608Z,71.69
2022-08-07T21:35:10.814Z,72.15
2022-08-07T21:37:59.087Z,71.94
2022-08-07T21:40:46.262Z,72.12
2022-08-07T21:43:47.451Z,72.04
2022-08-07T21:46:31.705Z,71.30
2022-08-07T21:49:14.975Z,72.10
2022-08-07T21:51:54.946Z,73.04
2022-08-07T21:54:26.500Z,72.45
2022-08-07T21:56:59.956Z,72.04
2022-08-07T21:59:36.337Z,72.69
2022-08-07T22:02:31.696Z,72.94
2022-08-07T22:05:00.858Z,72.63
2022-08-07T22:07:58.546Z,73.64
2022-08-07T22:10:24.531Z,73.76
2022-08-07T22:12:54.168Z,73.88
2022-08-07T22:16:38.995Z,73.61
2022-08-07T22:18:16.838Z,72.72
2022-08-07T22:20:54.067Z,72.71
2022-08-07T22:23:24.572Z,72.34
2022-08-07T22:26:01.750Z,73.35
2022-08-07T22:28:40.449Z,73.42
2022-08-07T22:31:56.306Z,74.11
2022-08-07T22:34:33.235Z,74.75
2022-08-07T22:37:22.971Z,74.24
2022-08-07T22:40:01.661Z,73.40
2022-08-07T22:42:34.269Z,73.33
2022-08-07T22:45:04.087Z,73.66
2022-08-07T22:47:59.426Z,73.92
2022-08-07T22:50:33.514Z,73.69
2022-08-07T22:54:05.661Z,74.54
2022-08-07T22:56:23.944Z,74.62
2022-08-07T22:59:33.073Z,75.05
2022-08-07T23:02:18.207Z,75.02
2022-08-07T23:04:56.843Z,74.70
2022-08-07T23:07:57.083Z,75.03
2022-08-07T23:10:37.796Z,75.67
2022-08-07T23:13:19.525Z,76.16
2022-08-07T23:16:07.350Z,76.19
2022-08-07T23:19:38.787Z,77.46
2022-08-07T23:22:31.819Z,77.46
2022-08-07T23:25:16.553Z,77.15
2022-08-07T23:28:21.190Z,76.61
2022-08-07T23:31:11.474Z,76.30
2022-08-07T23:34:36.193Z,76.57
2022-08-07T23:38:01.486Z,77.28
2022-08-07T23:40:43.184Z,78.37
2022-08-07T23:43:40.541Z,78.41
2022-08-07T23:46:44.684Z,77.89
2022-08-07T23:49:49.809Z,77.96
2022-08-07T23:53:00.214Z,77.10
2022-08-07T23:55:53.197Z,78.29
2022-08-07T23:58:37.991Z,78.28
